Maidsville, WV (26541)

9:46 AM EST on February 09, 2016 (GMT -0500)
WVU Evansdale NRCCE | | Change Station
CLOSE
Current Station
Personal Weather Station
Location: Morgantown, WV
Elevation: 1115 ft
Nearby Weather Stations

Elev 1115 ft 39.65 °N, 79.97 °W | Updated 15 seconds ago

Snow
Snow
25.9 °F
Feels Like 26 °F
N
0.0
Wind Variable Wind from SSW
Gusts 0.0 mph

Today
High -- | Low -- °F
--% Chance of Precip.
Yesterday
High -- | Low -- °F
Precip. -- in
Pressure 29.65 in
Visibility 0.5 miles
Clouds
Windchill 26 °F
Dew Point 24 °F
Humidity 93%
Rainfall 0.00 in
Snow Depth Not available.
7:20 AM 5:48 PM
New Moon, 1% visible
METAR KMGW 091353Z 21008KT 1/2SM -SN FZFG VV011 M04/M06 A2962 RMK AO2 SLP041 P0002 T10391061
Pressure 29.65 in
Visibility 0.5 miles
Clouds
Windchill 26 °F
Dew Point 24 °F
Humidity 93%
Rainfall 0.00 in
Snow Depth Not available.
7:20 AM 5:48 PM
New Moon, 1% visible
METAR KMGW 091353Z 21008KT 1/2SM -SN FZFG VV011 M04/M06 A2962 RMK AO2 SLP041 P0002 T10391061

10-Day Weather Forecast

Almanac

Astronomy

Feb. 09, 2016 Rise Set
Actual Time
Civil Twilight
Nautical Twilight
Astronomical Twilight
Moon
Length of Visible Light
Length of Day
Tomorrow will be .
, % of the Moon is Illuminated

Today's Extremes

State Highs State Lows

Community

WunderPhotos

Upload Photos

1,891,614 photos uploaded!

WunderBlog® & News

Nearby

Air Quality

  Air Quality AQ Index Pollutant
Not available.

Snow Depth

Station Depth Elevation

Earthquake Activity

City Distance Mag. Time & Date
Minimum magnitude displayed is 2.5.

Coastal Water Temperatures

Place Temperature

Stations

Nearby Weather Stations

Station Location Temp. Windchill Dew Point Humidity Wind Precip. Elev Updated Type
                   

Watches & Warnings

There are currently no watches in effect.